sensor_id;sensor_type;location;lat;lon;timestamp;pressure;altitude;pressure_sealevel;temperature;humidity
75221;BME280;63802;53.232;6.570;2023-05-14T00:00:44;102198.28;;;10.27;100.00
75221;BME280;63802;53.232;6.570;2023-05-14T00:03:11;102158.25;;;10.02;100.00
75221;BME280;63802;53.232;6.570;2023-05-14T00:05:36;102187.56;;;10.22;100.00
75221;BME280;63802;53.232;6.570;2023-05-14T00:08:02;102194.44;;;10.28;100.00
75221;BME280;63802;53.232;6.570;2023-05-14T00:10:27;102195.09;;;10.25;100.00
75221;BME280;63802;53.232;6.570;2023-05-14T00:12:52;102199.59;;;10.21;100.00
75221;BME280;63802;53.232;6.570;2023-05-14T00:15:18;102204.41;;;10.24;100.00
75221;BME280;63802;53.232;6.570;2023-05-14T00:17:44;102205.06;;;10.21;100.00
75221;BME280;63802;53.232;6.570;2023-05-14T00:20:10;102191.13;;;10.14;100.00
75221;BME280;63802;53.232;6.570;2023-05-14T00:22:37;102198.16;;;10.15;100.00
75221;BME280;63802;53.232;6.570;2023-05-14T00:25:05;102184.19;;;10.08;100.00
75221;BME280;63802;53.232;6.570;2023-05-14T00:27:31;102198.16;;;10.15;100.00
75221;BME280;63802;53.232;6.570;2023-05-14T00:29:56;102181.47;;;10.08;100.00
75221;BME280;63802;53.232;6.570;2023-05-14T00:32:22;102179.41;;;10.05;100.00
75221;BME280;63802;53.232;6.570;2023-05-14T00:34:48;102175.41;;;10.02;100.00
75221;BME280;63802;53.232;6.570;2023-05-14T00:37:13;102172.69;;;9.94;100.00
75221;BME280;63802;53.232;6.570;2023-05-14T00:39:38;102164.03;;;9.92;100.00
75221;BME280;63802;53.232;6.570;2023-05-14T00:42:04;102171.09;;;9.93;100.00
75221;BME280;63802;53.232;6.570;2023-05-14T00:44:30;102172.06;;;9.97;100.00
75221;BME280;63802;53.232;6.570;2023-05-14T00:46:55;102171.75;;;9.90;100.00
75221;BME280;63802;53.232;6.570;2023-05-14T00:49:21;102168.38;;;9.93;100.00
75221;BME280;63802;53.232;6.570;2023-05-14T00:51:47;102175.59;;;9.89;100.00
75221;BME280;63802;53.232;6.570;2023-05-14T00:54:14;102166.81;;;9.83;100.00
75221;BME280;63802;53.232;6.570;2023-05-14T00:56:42;102156.53;;;9.80;100.00
75221;BME280;63802;53.232;6.570;2023-05-14T00:59:09;102157.81;;;9.83;100.00
75221;BME280;63802;53.232;6.570;2023-05-14T01:01:34;102155.25;;;9.78;100.00
75221;BME280;63802;53.232;6.570;2023-05-14T01:04:00;102146.13;;;9.74;100.00
75221;BME280;63802;53.232;6.570;2023-05-14T01:09:07;102133.31;;;9.66;100.00
75221;BME280;63802;53.232;6.570;2023-05-14T01:12:05;102142.78;;;9.68;100.00
75221;BME280;63802;53.232;6.570;2023-05-14T01:17:19;102141.03;;;9.64;100.00
75221;BME280;63802;53.232;6.570;2023-05-14T01:19:47;102144.56;;;9.56;100.00
75221;BME280;63802;53.232;6.570;2023-05-14T01:22:14;102136.72;;;9.54;100.00
75221;BME280;63802;53.232;6.570;2023-05-14T01:24:40;102135.09;;;9.53;100.00
75221;BME280;63802;53.232;6.570;2023-05-14T01:27:16;102120.34;;;9.45;100.00
75221;BME280;63802;53.232;6.570;2023-05-14T01:29:52;102115.41;;;9.48;100.00
75221;BME280;63802;53.232;6.570;2023-05-14T01:32:21;102125.63;;;9.51;100.00
75221;BME280;63802;53.232;6.570;2023-05-14T01:34:49;102112.84;;;9.42;100.00
75221;BME280;63802;53.232;6.570;2023-05-14T01:37:15;102132.84;;;9.55;100.00
75221;BME280;63802;53.232;6.570;2023-05-14T01:39:41;102124.53;;;9.52;100.00
75221;BME280;63802;53.232;6.570;2023-05-14T01:42:07;102131.25;;;9.54;100.00
75221;BME280;63802;53.232;6.570;2023-05-14T01:44:33;102135.91;;;9.54;100.00
75221;BME280;63802;53.232;6.570;2023-05-14T01:47:00;102127.56;;;9.59;100.00
75221;BME280;63802;53.232;6.570;2023-05-14T01:49:25;102129.94;;;9.60;100.00
75221;BME280;63802;53.232;6.570;2023-05-14T01:51:51;102108.34;;;9.47;100.00
75221;BME280;63802;53.232;6.570;2023-05-14T01:54:16;102134.63;;;9.60;100.00
75221;BME280;63802;53.232;6.570;2023-05-14T01:56:45;102139.75;;;9.53;100.00
75221;BME280;63802;53.232;6.570;2023-05-14T01:59:10;102138.31;;;9.47;100.00
75221;BME280;63802;53.232;6.570;2023-05-14T02:01:35;102100.97;;;9.38;100.00
75221;BME280;63802;53.232;6.570;2023-05-14T02:04:01;102117.63;;;9.45;100.00
75221;BME280;63802;53.232;6.570;2023-05-14T02:06:26;102114.13;;;9.36;100.00
75221;BME280;63802;53.232;6.570;2023-05-14T02:08:52;102121.03;;;9.42;100.00
75221;BME280;63802;53.232;6.570;2023-05-14T02:11:17;102109.66;;;9.32;100.00
75221;BME280;63802;53.232;6.570;2023-05-14T02:13:43;102105.50;;;9.26;100.00
75221;BME280;63802;53.232;6.570;2023-05-14T02:16:08;102123.44;;;9.35;100.00
75221;BME280;63802;53.232;6.570;2023-05-14T02:18:34;102090.75;;;9.18;100.00
75221;BME280;63802;53.232;6.570;2023-05-14T02:20:59;102098.09;;;9.26;100.00
75221;BME280;63802;53.232;6.570;2023-05-14T02:23:24;102106.78;;;9.28;100.00
75221;BME280;63802;53.232;6.570;2023-05-14T02:25:53;102084.50;;;9.18;100.00
75221;BME280;63802;53.232;6.570;2023-05-14T02:28:18;102110.63;;;9.27;100.00
75221;BME280;63802;53.232;6.570;2023-05-14T02:30:44;102104.53;;;9.30;100.00
75221;BME280;63802;53.232;6.570;2023-05-14T02:33:09;102097.47;;;9.29;100.00
75221;BME280;63802;53.232;6.570;2023-05-14T02:35:34;102085.63;;;9.17;100.00
75221;BME280;63802;53.232;6.570;2023-05-14T02:38:00;102058.22;;;9.05;100.00
75221;BME280;63802;53.232;6.570;2023-05-14T02:40:25;102103.38;;;9.31;100.00
75221;BME280;63802;53.232;6.570;2023-05-14T02:42:51;102093.78;;;9.34;100.00
75221;BME280;63802;53.232;6.570;2023-05-14T02:45:16;102090.56;;;9.32;100.00
75221;BME280;63802;53.232;6.570;2023-05-14T02:47:42;102071.38;;;9.20;100.00
75221;BME280;63802;53.232;6.570;2023-05-14T02:50:08;102086.75;;;9.33;100.00
75221;BME280;63802;53.232;6.570;2023-05-14T02:52:34;102049.44;;;9.16;100.00
75221;BME280;63802;53.232;6.570;2023-05-14T02:55:00;102084.63;;;9.38;100.00
75221;BME280;63802;53.232;6.570;2023-05-14T02:57:25;102076.63;;;9.33;100.00
75221;BME280;63802;53.232;6.570;2023-05-14T02:59:51;102081.28;;;9.33;100.00
75221;BME280;63802;53.232;6.570;2023-05-14T03:02:16;102064.94;;;9.24;100.00
75221;BME280;63802;53.232;6.570;2023-05-14T03:04:41;102065.41;;;9.26;100.00
75221;BME280;63802;53.232;6.570;2023-05-14T03:07:07;102074.88;;;9.29;100.00
75221;BME280;63802;53.232;6.570;2023-05-14T03:09:32;102061.13;;;9.25;100.00
75221;BME280;63802;53.232;6.570;2023-05-14T03:11:58;102056.47;;;9.26;100.00
75221;BME280;63802;53.232;6.570;2023-05-14T03:14:24;102047.19;;;9.18;100.00
75221;BME280;63802;53.232;6.570;2023-05-14T03:16:50;102020.44;;;9.03;100.00
75221;BME280;63802;53.232;6.570;2023-05-14T03:19:15;102035.31;;;9.14;100.00
75221;BME280;63802;53.232;6.570;2023-05-14T03:21:41;102040.13;;;9.17;100.00
75221;BME280;63802;53.232;6.570;2023-05-14T03:24:07;102044.63;;;9.13;100.00
75221;BME280;63802;53.232;6.570;2023-05-14T03:26:32;102028.63;;;9.03;100.00
75221;BME280;63802;53.232;6.570;2023-05-14T03:28:58;102022.53;;;9.06;100.00
75221;BME280;63802;53.232;6.570;2023-05-14T03:31:23;102040.94;;;9.18;100.00
75221;BME280;63802;53.232;6.570;2023-05-14T03:33:49;102045.25;;;9.27;100.00
75221;BME280;63802;53.232;6.570;2023-05-14T03:36:14;102057.25;;;9.26;100.00
75221;BME280;63802;53.232;6.570;2023-05-14T03:38:40;102045.41;;;9.22;100.00
75221;BME280;63802;53.232;6.570;2023-05-14T03:41:05;102038.34;;;9.21;100.00
75221;BME280;63802;53.232;6.570;2023-05-14T03:43:31;102044.91;;;9.37;100.00
75221;BME280;63802;53.232;6.570;2023-05-14T03:45:56;102041.03;;;9.38;100.00
75221;BME280;63802;53.232;6.570;2023-05-14T03:48:21;102021.84;;;9.26;100.00
75221;BME280;63802;53.232;6.570;2023-05-14T03:50:47;102039.00;;;9.35;100.00
75221;BME280;63802;53.232;6.570;2023-05-14T03:53:12;102050.34;;;9.37;100.00
75221;BME280;63802;53.232;6.570;2023-05-14T03:55:38;102042.34;;;9.32;100.00
75221;BME280;63802;53.232;6.570;2023-05-14T03:58:03;102042.81;;;9.34;100.00
75221;BME280;63802;53.232;6.570;2023-05-14T04:00:32;102040.72;;;9.31;100.00
75221;BME280;63802;53.232;6.570;2023-05-14T04:02:57;102047.81;;;9.32;100.00
75221;BME280;63802;53.232;6.570;2023-05-14T04:05:23;102059.63;;;9.36;100.00
75221;BME280;63802;53.232;6.570;2023-05-14T04:07:48;102058.34;;;9.42;100.00
75221;BME280;63802;53.232;6.570;2023-05-14T04:10:14;102045.53;;;9.34;100.00
75221;BME280;63802;53.232;6.570;2023-05-14T04:12:39;102061.84;;;9.52;100.00
75221;BME280;63802;53.232;6.570;2023-05-14T04:15:05;102059.13;;;9.52;100.00
75221;BME280;63802;53.232;6.570;2023-05-14T04:17:31;102055.75;;;9.55;100.00
75221;BME280;63802;53.232;6.570;2023-05-14T04:19:57;102054.31;;;9.57;100.00
75221;BME280;63802;53.232;6.570;2023-05-14T04:22:23;102063.75;;;9.60;100.00
75221;BME280;63802;53.232;6.570;2023-05-14T04:24:48;102050.31;;;9.55;100.00
75221;BME280;63802;53.232;6.570;2023-05-14T04:27:19;102058.31;;;9.60;100.00
75221;BME280;63802;53.232;6.570;2023-05-14T04:29:45;102061.50;;;9.62;100.00
75221;BME280;63802;53.232;6.570;2023-05-14T04:32:11;102065.66;;;9.68;100.00
75221;BME280;63802;53.232;6.570;2023-05-14T04:34:37;102037.97;;;9.57;100.00
75221;BME280;63802;53.232;6.570;2023-05-14T04:37:02;102064.03;;;9.75;100.00
75221;BME280;63802;53.232;6.570;2023-05-14T04:39:28;102066.91;;;9.79;100.00
75221;BME280;63802;53.232;6.570;2023-05-14T04:41:54;102072.78;;;9.89;100.00
75221;BME280;63802;53.232;6.570;2023-05-14T04:44:20;102034.97;;;9.79;100.00
75221;BME280;63802;53.232;6.570;2023-05-14T04:46:45;102064.88;;;10.05;100.00
75221;BME280;63802;53.232;6.570;2023-05-14T04:49:10;102059.06;;;10.15;100.00
75221;BME280;63802;53.232;6.570;2023-05-14T04:51:36;102062.41;;;10.21;100.00
75221;BME280;63802;53.232;6.570;2023-05-14T04:54:02;102043.19;;;10.17;100.00
75221;BME280;63802;53.232;6.570;2023-05-14T04:56:27;102063.75;;;10.35;100.00
75221;BME280;63802;53.232;6.570;2023-05-14T04:58:52;102052.84;;;10.35;100.00
75221;BME280;63802;53.232;6.570;2023-05-14T05:01:18;102031.03;;;10.35;100.00
75221;BME280;63802;53.232;6.570;2023-05-14T05:03:43;102052.75;;;10.52;100.00
75221;BME280;63802;53.232;6.570;2023-05-14T05:06:09;102052.09;;;10.55;100.00
75221;BME280;63802;53.232;6.570;2023-05-14T05:08:35;102049.16;;;10.60;100.00
75221;BME280;63802;53.232;6.570;2023-05-14T05:11:01;102045.28;;;10.61;100.00
75221;BME280;63802;53.232;6.570;2023-05-14T05:13:26;102057.38;;;10.72;100.00
75221;BME280;63802;53.232;6.570;2023-05-14T05:15:52;102056.22;;;10.82;100.00
75221;BME280;63802;53.232;6.570;2023-05-14T05:18:17;102052.06;;;10.97;100.00
75221;BME280;63802;53.232;6.570;2023-05-14T05:20:43;102048.47;;;11.05;100.00
75221;BME280;63802;53.232;6.570;2023-05-14T05:23:08;102045.97;;;11.12;100.00
75221;BME280;63802;53.232;6.570;2023-05-14T05:25:34;102044.91;;;11.25;100.00
75221;BME280;63802;53.232;6.570;2023-05-14T05:27:59;102047.88;;;11.32;100.00
75221;BME280;63802;53.232;6.570;2023-05-14T05:30:25;102058.75;;;11.53;100.00
75221;BME280;63802;53.232;6.570;2023-05-14T05:32:50;102056.59;;;11.58;100.00
75221;BME280;63802;53.232;6.570;2023-05-14T05:35:16;102069.88;;;11.80;100.00
75221;BME280;63802;53.232;6.570;2023-05-14T05:37:42;102070.34;;;11.94;100.00
75221;BME280;63802;53.232;6.570;2023-05-14T05:40:09;102066.91;;;12.09;100.00
75221;BME280;63802;53.232;6.570;2023-05-14T05:42:35;102031.34;;;11.97;100.00
75221;BME280;63802;53.232;6.570;2023-05-14T05:45:00;102039.91;;;12.08;100.00
75221;BME280;63802;53.232;6.570;2023-05-14T05:47:25;102064.63;;;12.36;100.00
75221;BME280;63802;53.232;6.570;2023-05-14T05:49:51;102063.47;;;12.49;100.00
75221;BME280;63802;53.232;6.570;2023-05-14T05:52:17;102057.16;;;12.72;100.00
75221;BME280;63802;53.232;6.570;2023-05-14T05:54:43;102056.75;;;12.86;100.00
75221;BME280;63802;53.232;6.570;2023-05-14T05:57:08;102063.91;;;13.03;100.00
75221;BME280;63802;53.232;6.570;2023-05-14T05:59:34;102065.41;;;13.12;100.00
75221;BME280;63802;53.232;6.570;2023-05-14T06:02:00;102060.81;;;13.16;100.00
75221;BME280;63802;53.232;6.570;2023-05-14T06:04:25;102066.06;;;13.37;100.00
75221;BME280;63802;53.232;6.570;2023-05-14T06:06:51;102068.00;;;13.36;100.00
75221;BME280;63802;53.232;6.570;2023-05-14T06:09:16;102064.84;;;13.50;100.00
75221;BME280;63802;53.232;6.570;2023-05-14T06:11:42;102062.28;;;13.73;100.00
75221;BME280;63802;53.232;6.570;2023-05-14T06:14:07;102057.78;;;13.80;100.00
75221;BME280;63802;53.232;6.570;2023-05-14T06:16:33;102047.75;;;14.19;100.00
75221;BME280;63802;53.232;6.570;2023-05-14T06:18:58;102053.13;;;14.47;100.00
75221;BME280;63802;53.232;6.570;2023-05-14T06:21:24;102048.16;;;14.52;100.00
75221;BME280;63802;53.232;6.570;2023-05-14T06:23:49;102041.81;;;14.67;100.00
75221;BME280;63802;53.232;6.570;2023-05-14T06:26:15;102045.56;;;14.78;100.00
75221;BME280;63802;53.232;6.570;2023-05-14T06:28:40;102044.88;;;15.01;100.00
75221;BME280;63802;53.232;6.570;2023-05-14T06:31:08;102044.59;;;15.28;100.00
75221;BME280;63802;53.232;6.570;2023-05-14T06:33:34;102040.78;;;15.33;100.00
75221;BME280;63802;53.232;6.570;2023-05-14T06:36:03;102046.19;;;15.49;100.00
75221;BME280;63802;53.232;6.570;2023-05-14T06:38:29;102053.56;;;15.64;100.00
75221;BME280;63802;53.232;6.570;2023-05-14T06:40:54;102049.03;;;15.52;100.00
75221;BME280;63802;53.232;6.570;2023-05-14T06:43:20;102055.38;;;15.56;100.00
75221;BME280;63802;53.232;6.570;2023-05-14T06:45:49;102065.66;;;15.59;100.00
75221;BME280;63802;53.232;6.570;2023-05-14T06:48:16;102052.09;;;15.47;100.00
75221;BME280;63802;53.232;6.570;2023-05-14T06:50:43;102050.81;;;15.64;99.44
75221;BME280;63802;53.232;6.570;2023-05-14T06:53:08;102053.06;;;15.58;99.14
75221;BME280;63802;53.232;6.570;2023-05-14T06:55:34;102027.97;;;15.21;100.00
75221;BME280;63802;53.232;6.570;2023-05-14T06:58:00;102040.66;;;15.45;100.00
75221;BME280;63802;53.232;6.570;2023-05-14T07:00:26;102045.97;;;15.57;100.00
75221;BME280;63802;53.232;6.570;2023-05-14T07:02:52;102044.41;;;15.60;100.00
75221;BME280;63802;53.232;6.570;2023-05-14T07:05:17;102043.94;;;15.54;100.00
75221;BME280;63802;53.232;6.570;2023-05-14T07:07:43;102019.06;;;15.47;100.00
75221;BME280;63802;53.232;6.570;2023-05-14T07:10:09;102039.22;;;15.77;100.00
75221;BME280;63802;53.232;6.570;2023-05-14T07:12:34;102017.22;;;15.77;100.00
75221;BME280;63802;53.232;6.570;2023-05-14T07:15:00;102039.06;;;16.16;100.00
75221;BME280;63802;53.232;6.570;2023-05-14T07:17:25;102029.00;;;16.27;100.00
75221;BME280;63802;53.232;6.570;2023-05-14T07:19:51;102029.00;;;16.27;100.00
75221;BME280;63802;53.232;6.570;2023-05-14T07:22:16;102035.94;;;16.17;99.07
75221;BME280;63802;53.232;6.570;2023-05-14T07:24:42;102033.34;;;16.28;98.97
75221;BME280;63802;53.232;6.570;2023-05-14T07:27:07;102031.75;;;16.27;97.97
75221;BME280;63802;53.232;6.570;2023-05-14T07:29:33;102032.50;;;16.24;98.02
75221;BME280;63802;53.232;6.570;2023-05-14T07:31:59;102037.28;;;16.53;96.72
75221;BME280;63802;53.232;6.570;2023-05-14T07:34:25;102039.09;;;16.45;97.19
75221;BME280;63802;53.232;6.570;2023-05-14T07:36:51;102013.84;;;16.40;97.87
75221;BME280;63802;53.232;6.570;2023-05-14T07:39:17;102033.34;;;16.54;97.47
75221;BME280;63802;53.232;6.570;2023-05-14T07:41:42;102018.28;;;16.48;98.03
75221;BME280;63802;53.232;6.570;2023-05-14T07:44:08;102019.81;;;16.75;98.03
75221;BME280;63802;53.232;6.570;2023-05-14T07:46:34;102029.59;;;16.69;98.56
75221;BME280;63802;53.232;6.570;2023-05-14T07:48:59;102032.38;;;16.69;98.53
75221;BME280;63802;53.232;6.570;2023-05-14T07:51:24;102021.44;;;16.50;98.43
75221;BME280;63802;53.232;6.570;2023-05-14T07:53:52;102046.53;;;16.67;97.92
75221;BME280;63802;53.232;6.570;2023-05-14T07:56:20;102045.75;;;16.41;98.16
75221;BME280;63802;53.232;6.570;2023-05-14T07:58:45;102045.28;;;16.13;99.56
75221;BME280;63802;53.232;6.570;2023-05-14T08:01:11;102024.75;;;16.06;100.00
75221;BME280;63802;53.232;6.570;2023-05-14T08:03:36;102040.88;;;16.04;100.00
75221;BME280;63802;53.232;6.570;2023-05-14T08:06:02;102040.66;;;16.17;100.00
75221;BME280;63802;53.232;6.570;2023-05-14T08:08:28;102043.72;;;16.12;100.00
75221;BME280;63802;53.232;6.570;2023-05-14T08:10:54;102028.03;;;16.16;100.00
75221;BME280;63802;53.232;6.570;2023-05-14T08:13:19;102021.34;;;16.43;100.00
75221;BME280;63802;53.232;6.570;2023-05-14T08:15:45;102038.06;;;16.83;99.11
75221;BME280;63802;53.232;6.570;2023-05-14T08:18:11;102041.13;;;17.08;97.71
75221;BME280;63802;53.232;6.570;2023-05-14T08:20:36;102015.19;;;16.83;97.81
75221;BME280;63802;53.232;6.570;2023-05-14T08:23:02;102027.97;;;17.31;96.84
75221;BME280;63802;53.232;6.570;2023-05-14T08:25:27;102028.66;;;17.58;95.06
75221;BME280;63802;53.232;6.570;2023-05-14T08:27:53;102023.00;;;17.91;93.24
75221;BME280;63802;53.232;6.570;2023-05-14T08:30:19;102029.81;;;18.04;91.16
75221;BME280;63802;53.232;6.570;2023-05-14T08:32:45;102021.63;;;18.18;90.43
75221;BME280;63802;53.232;6.570;2023-05-14T08:35:11;102016.94;;;18.29;89.62
75221;BME280;63802;53.232;6.570;2023-05-14T08:37:36;102020.06;;;18.24;86.10
75221;BME280;63802;53.232;6.570;2023-05-14T08:40:03;102013.75;;;18.20;85.11
75221;BME280;63802;53.232;6.570;2023-05-14T08:42:29;102021.06;;;17.95;84.06
75221;BME280;63802;53.232;6.570;2023-05-14T08:45:04;102013.75;;;17.66;85.22
75221;BME280;63802;53.232;6.570;2023-05-14T08:47:35;102007.19;;;17.88;83.19
75221;BME280;63802;53.232;6.570;2023-05-14T08:50:03;102021.25;;;17.69;84.05
75221;BME280;63802;53.232;6.570;2023-05-14T08:52:29;102028.78;;;17.72;84.64
75221;BME280;63802;53.232;6.570;2023-05-14T08:54:56;102018.59;;;17.83;83.57
75221;BME280;63802;53.232;6.570;2023-05-14T08:57:24;102022.25;;;17.94;84.67
75221;BME280;63802;53.232;6.570;2023-05-14T08:59:51;102029.94;;;18.22;83.89
75221;BME280;63802;53.232;6.570;2023-05-14T09:02:19;102021.75;;;18.43;83.13
75221;BME280;63802;53.232;6.570;2023-05-14T09:04:49;102015.59;;;18.63;82.85
75221;BME280;63802;53.232;6.570;2023-05-14T09:07:16;102006.91;;;18.61;83.54
75221;BME280;63802;53.232;6.570;2023-05-14T09:09:42;102019.66;;;18.91;83.27
75221;BME280;63802;53.232;6.570;2023-05-14T09:12:09;101988.41;;;18.87;81.27
75221;BME280;63802;53.232;6.570;2023-05-14T09:14:34;102016.00;;;18.65;82.01
75221;BME280;63802;53.232;6.570;2023-05-14T09:17:00;102009.63;;;18.54;83.36
75221;BME280;63802;53.232;6.570;2023-05-14T09:19:25;102015.13;;;18.47;82.45
75221;BME280;63802;53.232;6.570;2023-05-14T09:21:51;102006.91;;;18.61;82.25
75221;BME280;63802;53.232;6.570;2023-05-14T09:24:19;102008.34;;;18.41;82.88
75221;BME280;63802;53.232;6.570;2023-05-14T09:26:52;102007.66;;;18.62;82.98
75221;BME280;63802;53.232;6.570;2023-05-14T09:29:17;102006.88;;;18.54;83.69
75221;BME280;63802;53.232;6.570;2023-05-14T09:31:43;102010.88;;;18.74;82.97
75221;BME280;63802;53.232;6.570;2023-05-14T09:34:09;102006.88;;;18.54;84.44
75221;BME280;63802;53.232;6.570;2023-05-14T09:36:35;101987.88;;;18.53;84.55
75221;BME280;63802;53.232;6.570;2023-05-14T09:39:03;102002.63;;;18.89;83.36
75221;BME280;63802;53.232;6.570;2023-05-14T09:41:29;101988.84;;;18.92;83.02
75221;BME280;63802;53.232;6.570;2023-05-14T09:43:54;101995.22;;;19.14;83.37
75221;BME280;63802;53.232;6.570;2023-05-14T09:46:21;101983.72;;;19.05;82.05
75221;BME280;63802;53.232;6.570;2023-05-14T09:48:47;101987.28;;;19.05;82.26
75221;BME280;63802;53.232;6.570;2023-05-14T09:51:13;101967.53;;;19.21;84.16
75221;BME280;63802;53.232;6.570;2023-05-14T09:53:39;101963.66;;;19.50;80.22
75221;BME280;63802;53.232;6.570;2023-05-14T09:56:06;101974.66;;;19.25;78.99
75221;BME280;63802;53.232;6.570;2023-05-14T09:58:31;101988.06;;;18.99;82.12
75221;BME280;63802;53.232;6.570;2023-05-14T10:00:58;101977.88;;;19.38;82.61
75221;BME280;63802;53.232;6.570;2023-05-14T10:03:25;101986.56;;;19.93;82.93
75221;BME280;63802;53.232;6.570;2023-05-14T10:05:52;101957.25;;;20.10;80.46
75221;BME280;63802;53.232;6.570;2023-05-14T10:08:26;101977.81;;;20.19;79.45
75221;BME280;63802;53.232;6.570;2023-05-14T10:10:53;101958.81;;;20.25;77.67
75221;BME280;63802;53.232;6.570;2023-05-14T10:13:23;101969.53;;;20.23;79.71
75221;BME280;63802;53.232;6.570;2023-05-14T10:16:18;101974.88;;;20.72;78.44
75221;BME280;63802;53.232;6.570;2023-05-14T10:18:49;101976.81;;;20.82;78.03
75221;BME280;63802;53.232;6.570;2023-05-14T10:21:19;101970.69;;;21.12;77.03
75221;BME280;63802;53.232;6.570;2023-05-14T10:23:46;101964.03;;;20.95;75.72
75221;BME280;63802;53.232;6.570;2023-05-14T10:26:16;101969.56;;;20.99;75.06
75221;BME280;63802;53.232;6.570;2023-05-14T10:28:42;101946.94;;;21.00;73.83
75221;BME280;63802;53.232;6.570;2023-05-14T10:31:08;101964.88;;;20.92;74.15
75221;BME280;63802;53.232;6.570;2023-05-14T10:33:48;101958.78;;;21.18;74.01
75221;BME280;63802;53.232;6.570;2023-05-14T10:36:17;101948.16;;;21.06;72.73
75221;BME280;63802;53.232;6.570;2023-05-14T10:38:45;101954.16;;;21.49;71.12
75221;BME280;63802;53.232;6.570;2023-05-14T10:41:13;101953.38;;;21.45;71.74
75221;BME280;63802;53.232;6.570;2023-05-14T10:43:42;101945.84;;;21.46;72.13
75221;BME280;63802;53.232;6.570;2023-05-14T10:46:10;101939.53;;;21.86;64.79
75221;BME280;63802;53.232;6.570;2023-05-14T10:48:37;101948.78;;;21.76;62.15
75221;BME280;63802;53.232;6.570;2023-05-14T10:51:06;101939.91;;;22.25;57.78
75221;BME280;63802;53.232;6.570;2023-05-14T10:53:35;101932.34;;;22.59;55.25
75221;BME280;63802;53.232;6.570;2023-05-14T10:56:09;101930.84;;;22.51;53.91
75221;BME280;63802;53.232;6.570;2023-05-14T10:58:41;101930.47;;;22.49;51.60
75221;BME280;63802;53.232;6.570;2023-05-14T11:01:07;101912.59;;;22.81;49.36
75221;BME280;63802;53.232;6.570;2023-05-14T11:03:44;101916.16;;;23.08;49.96
75221;BME280;63802;53.232;6.570;2023-05-14T11:06:12;101920.69;;;23.48;48.26
75221;BME280;63802;53.232;6.570;2023-05-14T11:08:38;101920.53;;;23.78;48.38
75221;BME280;63802;53.232;6.570;2023-05-14T11:11:05;101918.25;;;23.73;47.48
75221;BME280;63802;53.232;6.570;2023-05-14T11:13:31;101905.31;;;23.63;46.35
75221;BME280;63802;53.232;6.570;2023-05-14T11:16:00;101895.31;;;23.85;48.18
75221;BME280;63802;53.232;6.570;2023-05-14T11:18:29;101901.56;;;24.52;46.99
75221;BME280;63802;53.232;6.570;2023-05-14T11:20:59;101887.44;;;24.95;46.46
75221;BME280;63802;53.232;6.570;2023-05-14T11:23:26;101896.03;;;24.84;44.28
75221;BME280;63802;53.232;6.570;2023-05-14T11:25:52;101893.56;;;24.70;43.79
75221;BME280;63802;53.232;6.570;2023-05-14T11:28:23;101887.97;;;24.70;43.54
75221;BME280;63802;53.232;6.570;2023-05-14T11:30:52;101896.47;;;24.47;43.72
75221;BME280;63802;53.232;6.570;2023-05-14T11:33:19;101893.00;;;24.23;44.72
75221;BME280;63802;53.232;6.570;2023-05-14T11:35:48;101886.59;;;23.83;46.50
75221;BME280;63802;53.232;6.570;2023-05-14T11:38:17;101889.66;;;23.89;46.43
75221;BME280;63802;53.232;6.570;2023-05-14T11:40:57;101888.44;;;23.47;45.89
75221;BME280;63802;53.232;6.570;2023-05-14T11:43:23;101882.59;;;23.84;46.97
75221;BME280;63802;53.232;6.570;2023-05-14T11:45:53;101885.91;;;23.56;49.06
75221;BME280;63802;53.232;6.570;2023-05-14T11:48:20;101871.38;;;23.22;48.98
75221;BME280;63802;53.232;6.570;2023-05-14T11:50:51;101857.31;;;23.52;47.41
75221;BME280;63802;53.232;6.570;2023-05-14T11:53:26;101895.41;;;24.02;45.54
75221;BME280;63802;53.232;6.570;2023-05-14T11:55:52;101882.06;;;24.13;43.47
75221;BME280;63802;53.232;6.570;2023-05-14T11:58:18;101885.63;;;24.33;43.19
75221;BME280;63802;53.232;6.570;2023-05-14T12:00:44;101877.75;;;24.28;44.72
75221;BME280;63802;53.232;6.570;2023-05-14T12:03:11;101888.38;;;24.88;44.59
75221;BME280;63802;53.232;6.570;2023-05-14T12:05:38;101851.50;;;24.61;42.23
75221;BME280;63802;53.232;6.570;2023-05-14T12:08:21;101869.75;;;24.30;39.19
75221;BME280;63802;53.232;6.570;2023-05-14T12:10:47;101876.00;;;23.75;38.31
75221;BME280;63802;53.232;6.570;2023-05-14T12:13:16;101864.88;;;23.94;37.70
75221;BME280;63802;53.232;6.570;2023-05-14T12:16:00;101873.38;;;24.07;35.10
75221;BME280;63802;53.232;6.570;2023-05-14T12:18:29;101865.41;;;23.66;34.57
75221;BME280;63802;53.232;6.570;2023-05-14T12:20:55;101857.28;;;23.75;37.43
75221;BME280;63802;53.232;6.570;2023-05-14T12:23:33;101828.19;;;24.16;38.14
75221;BME280;63802;53.232;6.570;2023-05-14T12:26:03;101854.94;;;24.13;36.84
75221;BME280;63802;53.232;6.570;2023-05-14T12:28:30;101846.31;;;23.65;33.15
75221;BME280;63802;53.232;6.570;2023-05-14T12:30:56;101853.41;;;23.89;35.24
75221;BME280;63802;53.232;6.570;2023-05-14T12:33:22;101847.53;;;22.94;34.62
75221;BME280;63802;53.232;6.570;2023-05-14T12:35:48;101841.56;;;23.19;34.56
75221;BME280;63802;53.232;6.570;2023-05-14T12:38:14;101851.19;;;23.38;36.63
75221;BME280;63802;53.232;6.570;2023-05-14T12:40:40;101840.09;;;23.57;37.37
75221;BME280;63802;53.232;6.570;2023-05-14T12:43:05;101831.41;;;23.94;37.86
75221;BME280;63802;53.232;6.570;2023-05-14T12:45:30;101818.91;;;23.40;38.56
75221;BME280;63802;53.232;6.570;2023-05-14T12:47:56;101839.16;;;23.44;36.89
75221;BME280;63802;53.232;6.570;2023-05-14T12:50:21;101840.81;;;23.61;37.40